Aérodrome :
LOGIN :

S'inscrire | Disclaimer

   EN    FR    IT 

 










Légende :    VFR   VFR Marginal   IFR   IFR Intensif   IFR Très Intensif
Visi : 
Plafond : 
>= 8 km
>= 3000ft
5 à 8 km
1000 à 3000 ft
1500m à 5 km
500 à 1000 ft
800 à 1500m
200 à 500 ft
< 800m
< 200 ft
Symboles :   Orages  Brouillard  Fortes neiges  Fortes précipitations  Vent > 20 kt
SIGMETs :   Divers  Orages  Givrage  Turbulence  Onde Orograph.  Cendres Volcan.






- Altitude de l'aérodrome : 512 ft
- Code IATA : URO


LFOP - Rouen Vallée de Seine

DERNIER METAR :
  • 210330Z AUTO 30007KT 4100 -RA BR OVC005 10/10 Q1010

METARs EXPIRÉS :
  • 210300Z AUTO 32008KT 5000 DZ BR OVC007 10/10 Q1010
  • 210230Z AUTO 33007KT 6000 DZ OVC008 10/09 Q1010
  • 210200Z AUTO 34007KT 320V020 9999 OVC008 10/09 Q1009
  • 210130Z AUTO 34009KT 320V020 9999 -DZ OVC007/// ///TCU 10/09 Q1009
  • 210100Z AUTO 34010KT 320V020 9999 -RA OVC006/// ///TCU 10/09 Q1009

TAF TAF LFOP
Valide du 20 à 18h jusqu'au 21 à 18h UTC


201700Z 2018/2118 04008KT 8000 SCT015 BKN100
TEMPO 2018/2111 2000 RA BKN003 OVC010
BECMG 2020/2023 34012KT
BECMG 2102/2104 23010KT
TEMPO 2106/2109 27020G30KT
ATIS : +33 2 35 80 80 34
Météo : +33 2 32 86 52 80



MET'MAP, la Météo Aéronautique d'un coup d'oeil ! - Copyright ORBIFLY Décembre 2007 - Disclaimer

ORBIFLY MET'MAP TEAM :

Programmation & Développement : Alexandra Zaïnal
Conception & Développement : Baudouin d'Aumeries
Co-Programmation & Développement : Marc-Olivier Méhu
Soutien technique & logistique : Manuel Goepfert

Contact : metmap@orbifly.com




SOURCES & CREDITS :

   NOAA